Time;durP1;ratioP1;P1;durP2;ratioP2;P2;SDS_P1;SDS_P2;PMS_P1;PMS_P2;Temp;Humidity;BMP_temperature;BMP_pressure;BME280_temperature;BME280_humidity;BME280_pressure;Samples;Min_cycle;Max_cycle;Signal;HPM_P1;HPM_P2
2022/11/21 00:00:58;;;;;;;74.28;41.55;;;;;;;;;;5081716;28;20043;-91
2022/11/21 00:03:24;;;;;;;80.28;42.13;;;;;;;;;;5080056;28;20020;-91
2022/11/21 00:05:50;;;;;;;73.78;39.65;;;;;;;;;;5080508;28;20062;-93
2022/11/21 00:08:20;;;;;;;95.15;47.17;;;;;;;;;;5085410;28;20048;-91
2022/11/21 00:10:50;;;;;;;91.20;45.70;;;;;;;;;;5098387;28;20032;-92
2022/11/21 00:13:17;;;;;;;100.35;48.88;;;;;;;;;;5083698;28;20024;-90
2022/11/21 00:15:43;;;;;;;116.50;50.97;;;;;;;;;;5079252;28;20035;-93
2022/11/21 00:18:12;;;;;;;118.55;56.80;;;;;;;;;;5079115;28;20032;-92
2022/11/21 00:20:39;;;;;;;116.35;53.88;;;;;;;;;;5079364;28;20062;-91
2022/11/21 00:23:05;;;;;;;119.07;55.10;;;;;;;;;;5080052;28;20342;-92
2022/11/21 00:25:35;;;;;;;121.80;55.08;;;;;;;;;;5079226;28;20024;-91
2022/11/21 00:28:01;;;;;;;128.68;54.80;;;;;;;;;;5082496;28;20032;-91
2022/11/21 00:30:30;;;;;;;133.90;57.83;;;;;;;;;;5079052;28;20468;-92
2022/11/21 00:32:59;;;;;;;113.25;50.50;;;;;;;;;;5079044;28;20028;-92
2022/11/21 00:35:26;;;;;;;130.63;54.72;;;;;;;;;;5078881;28;20020;-91
2022/11/21 00:37:52;;;;;;;175.50;70.00;;;;;;;;;;5078756;28;20419;-92
2022/11/21 00:40:19;;;;;;;130.27;56.63;;;;;;;;;;5076474;28;20044;-93
2022/11/21 00:42:47;;;;;;;163.52;62.65;;;;;;;;;;5078724;28;20507;-92
2022/11/21 00:45:14;;;;;;;135.43;56.22;;;;;;;;;;5078658;28;20028;-94
2022/11/21 00:47:40;;;;;;;134.65;58.00;;;;;;;;;;5078658;28;20063;-92
2022/11/21 00:50:06;;;;;;;137.20;57.05;;;;;;;;;;5079826;28;20046;-90
2022/11/21 00:52:41;;;;;;;147.60;58.88;;;;;;;;;;5078334;28;20369;-94
2022/11/21 00:55:07;;;;;;;151.43;58.97;;;;;;;;;;5078752;28;20024;-92
2022/11/21 00:57:34;;;;;;;145.75;58.22;;;;;;;;;;5078826;28;20076;-91
2022/11/21 01:00:00;;;;;;;119.93;51.00;;;;;;;;;;5086656;28;20028;-91
2022/11/21 01:02:26;;;;;;;135.73;54.80;;;;;;;;;;5079533;28;20537;-94
2022/11/21 01:04:52;;;;;;;125.95;53.25;;;;;;;;;;5078293;28;20374;-92
2022/11/21 01:07:18;;;;;;;143.82;56.90;;;;;;;;;;5078213;28;20074;-91
2022/11/21 01:09:44;;;;;;;157.40;58.63;;;;;;;;;;5078303;28;20599;-92
2022/11/21 01:12:16;;;;;;;199.52;64.90;;;;;;;;;;5078372;28;20475;-92
2022/11/21 01:14:42;;;;;;;182.05;63.53;;;;;;;;;;5078315;28;20571;-91
2022/11/21 01:17:08;;;;;;;168.55;61.45;;;;;;;;;;5077928;28;20016;-90
2022/11/21 01:19:35;;;;;;;150.02;57.92;;;;;;;;;;5078436;28;20032;-92
2022/11/21 01:22:09;;;;;;;178.32;63.85;;;;;;;;;;5078510;28;20544;-91
2022/11/21 01:24:36;;;;;;;230.43;66.47;;;;;;;;;;5083952;28;20032;-91
2022/11/21 01:27:02;;;;;;;181.13;62.67;;;;;;;;;;5077964;28;20040;-91
2022/11/21 01:29:28;;;;;;;353.63;75.40;;;;;;;;;;5077893;28;20020;-93
2022/11/21 01:31:54;;;;;;;175.45;58.15;;;;;;;;;;5077874;28;20032;-91
2022/11/21 01:34:20;;;;;;;193.50;66.60;;;;;;;;;;5078705;28;20122;-92
2022/11/21 01:36:47;;;;;;;160.82;60.30;;;;;;;;;;5078346;28;20027;-93
2022/11/21 01:39:13;;;;;;;236.27;69.47;;;;;;;;;;5077656;28;20024;-92
2022/11/21 01:41:41;;;;;;;227.07;66.97;;;;;;;;;;5074125;28;20124;-93
2022/11/21 01:44:10;;;;;;;241.73;63.55;;;;;;;;;;5074382;28;20051;-91
2022/11/21 01:46:36;;;;;;;247.50;62.67;;;;;;;;;;5074058;28;20039;-92
2022/11/21 01:49:05;;;;;;;232.55;63.53;;;;;;;;;;5075203;28;20082;-92
2022/11/21 01:51:33;;;;;;;239.70;60.20;;;;;;;;;;5076313;28;20020;-91
2022/11/21 01:54:02;;;;;;;210.07;62.42;;;;;;;;;;5095714;28;20028;-91
2022/11/21 01:56:29;;;;;;;269.40;61.35;;;;;;;;;;5075674;28;20414;-92
2022/11/21 01:58:57;;;;;;;182.98;57.28;;;;;;;;;;5073867;28;20065;-92
2022/11/21 02:01:24;;;;;;;191.88;55.78;;;;;;;;;;5074098;28;20021;-91
2022/11/21 02:03:50;;;;;;;159.40;53.67;;;;;;;;;;5074151;28;20028;-93
2022/11/21 02:06:17;;;;;;;306.65;63.85;;;;;;;;;;5074083;28;20028;-91
2022/11/21 02:09:01;;;;;;;166.18;50.25;;;;;;;;;;5073888;28;20029;-91
2022/11/21 02:11:34;;;;;;;203.00;53.80;;;;;;;;;;5074831;28;20372;-91
2022/11/21 02:14:10;;;;;;;487.08;72.55;;;;;;;;;;5073832;28;20056;-92
2022/11/21 02:16:37;;;;;;;467.50;70.20;;;;;;;;;;5073169;28;20090;-91
2022/11/21 02:19:25;;;;;;;130.75;51.47;;;;;;;;;;5073543;28;20020;-91
2022/11/21 02:22:05;;;;;;;293.88;59.50;;;;;;;;;;5080606;28;20028;-92
2022/11/21 02:24:43;;;;;;;293.58;59.75;;;;;;;;;;5073687;28;20025;-92
2022/11/21 02:27:09;;;;;;;409.15;60.72;;;;;;;;;;5073314;28;20505;-91
2022/11/21 02:29:36;;;;;;;137.93;45.40;;;;;;;;;;5072898;28;20037;-93
2022/11/21 02:32:06;;;;;;;417.98;63.42;;;;;;;;;;5073661;28;20028;-92
2022/11/21 02:34:32;;;;;;;483.92;67.20;;;;;;;;;;5073511;28;20025;-95
2022/11/21 02:36:59;;;;;;;240.02;58.28;;;;;;;;;;5073698;28;20028;-90
2022/11/21 02:39:29;;;;;;;333.15;59.65;;;;;;;;;;5073713;28;20040;-93
2022/11/21 02:41:59;;;;;;;400.63;67.47;;;;;;;;;;5073326;28;20053;-91
2022/11/21 02:44:48;;;;;;;343.35;62.15;;;;;;;;;;5073151;28;20028;-92
2022/11/21 02:47:14;;;;;;;396.40;66.60;;;;;;;;;;5073346;28;20594;-92
2022/11/21 02:49:45;;;;;;;397.23;64.07;;;;;;;;;;5078462;28;20032;-92
2022/11/21 02:52:11;;;;;;;474.58;70.68;;;;;;;;;;5073301;28;20099;-92
2022/11/21 02:54:37;;;;;;;286.58;62.95;;;;;;;;;;5073173;28;20035;-91
2022/11/21 02:57:04;;;;;;;102.28;44.97;;;;;;;;;;5073416;28;20021;-92
2022/11/21 02:59:30;;;;;;;245.30;58.35;;;;;;;;;;5073345;28;20029;-93
2022/11/21 03:01:58;;;;;;;231.35;58.63;;;;;;;;;;5073204;28;20043;-94
2022/11/21 03:04:25;;;;;;;501.15;71.38;;;;;;;;;;5073655;28;20124;-92
2022/11/21 03:06:51;;;;;;;362.77;65.00;;;;;;;;;;5073039;28;20032;-91
2022/11/21 03:09:17;;;;;;;278.73;61.08;;;;;;;;;;5073111;28;20052;-90
2022/11/21 03:11:43;;;;;;;324.38;62.17;;;;;;;;;;5073266;28;20024;-92
2022/11/21 03:14:12;;;;;;;248.60;55.78;;;;;;;;;;5073673;28;20464;-91
2022/11/21 03:16:38;;;;;;;208.02;55.60;;;;;;;;;;5072707;28;20028;-92
2022/11/21 03:19:05;;;;;;;501.85;73.45;;;;;;;;;;5072990;28;20119;-91
2022/11/21 03:21:31;;;;;;;472.27;70.72;;;;;;;;;;5074586;28;20473;-92
2022/11/21 03:23:57;;;;;;;370.13;65.63;;;;;;;;;;5073037;28;20035;-91
2022/11/21 03:26:23;;;;;;;316.13;60.85;;;;;;;;;;5073089;28;20050;-90
2022/11/21 03:28:49;;;;;;;212.27;56.30;;;;;;;;;;5073498;28;20073;-93
2022/11/21 03:31:15;;;;;;;198.95;53.75;;;;;;;;;;5076979;28;20032;-90
2022/11/21 03:33:41;;;;;;;81.68;41.55;;;;;;;;;;5077935;28;20490;-91
2022/11/21 03:36:07;;;;;;;132.00;45.22;;;;;;;;;;5090672;28;20024;-90
2022/11/21 03:38:34;;;;;;;108.13;44.83;;;;;;;;;;5090436;28;20028;-91
2022/11/21 03:41:04;;;;;;;163.07;50.45;;;;;;;;;;5078040;28;20048;-93
2022/11/21 03:43:30;;;;;;;145.38;48.28;;;;;;;;;;5077358;28;20119;-91
2022/11/21 03:45:56;;;;;;;336.75;53.50;;;;;;;;;;5076667;28;20074;-93
2022/11/21 03:48:22;;;;;;;228.13;52.83;;;;;;;;;;5076459;28;20378;-92
2022/11/21 03:50:52;;;;;;;76.50;36.50;;;;;;;;;;5076743;28;20077;-92
2022/11/21 03:53:18;;;;;;;169.98;47.58;;;;;;;;;;5078252;28;20384;-92
2022/11/21 03:55:44;;;;;;;241.65;52.88;;;;;;;;;;5077628;28;20032;-91
2022/11/21 03:58:10;;;;;;;257.50;55.75;;;;;;;;;;5077287;28;20056;-91
2022/11/21 04:00:36;;;;;;;130.27;47.65;;;;;;;;;;5076007;28;20024;-90
2022/11/21 04:03:02;;;;;;;189.95;49.20;;;;;;;;;;5076366;28;20024;-90
2022/11/21 04:05:28;;;;;;;187.02;50.38;;;;;;;;;;5076284;28;20024;-92
2022/11/21 04:07:55;;;;;;;125.45;46.85;;;;;;;;;;5076038;28;20051;-92
2022/11/21 04:10:23;;;;;;;178.68;48.75;;;;;;;;;;5070519;28;20056;-92
2022/11/21 04:12:49;;;;;;;208.90;50.25;;;;;;;;;;5076060;28;20032;-91
2022/11/21 04:15:16;;;;;;;229.70;54.20;;;;;;;;;;5078146;28;20032;-91
2022/11/21 04:17:42;;;;;;;191.52;52.78;;;;;;;;;;5075963;28;20024;-92
2022/11/21 04:20:08;;;;;;;131.32;47.17;;;;;;;;;;5075899;28;20024;-92
2022/11/21 04:22:34;;;;;;;188.10;50.28;;;;;;;;;;5075853;28;20024;-91
2022/11/21 04:25:00;;;;;;;374.42;64.60;;;;;;;;;;5075846;28;20028;-91
2022/11/21 04:27:26;;;;;;;262.88;54.97;;;;;;;;;;5075507;28;20121;-91
2022/11/21 04:29:53;;;;;;;121.00;46.30;;;;;;;;;;5075817;28;20025;-94
2022/11/21 04:32:19;;;;;;;140.40;48.42;;;;;;;;;;5077546;28;20020;-91
2022/11/21 04:34:45;;;;;;;152.00;48.30;;;;;;;;;;5075464;28;20033;-91
2022/11/21 04:37:11;;;;;;;128.68;45.58;;;;;;;;;;5075529;28;20561;-90
2022/11/21 04:39:37;;;;;;;149.20;47.17;;;;;;;;;;5075255;28;20027;-91
2022/11/21 04:42:03;;;;;;;192.02;48.15;;;;;;;;;;5075341;28;20098;-93
2022/11/21 04:44:29;;;;;;;204.32;52.03;;;;;;;;;;5075734;28;20020;-92
2022/11/21 04:46:56;;;;;;;204.73;51.10;;;;;;;;;;5075792;28;20068;-92
2022/11/21 04:49:22;;;;;;;114.30;43.60;;;;;;;;;;5075425;28;20046;-92
2022/11/21 04:51:48;;;;;;;109.32;41.88;;;;;;;;;;5075385;28;20024;-91
2022/11/21 04:54:21;;;;;;;121.53;45.25;;;;;;;;;;5075355;28;20058;-92
2022/11/21 04:56:47;;;;;;;157.43;47.20;;;;;;;;;;5077141;28;20035;-92
2022/11/21 04:59:13;;;;;;;115.75;43.22;;;;;;;;;;5074933;28;20051;-90
2022/11/21 05:01:40;;;;;;;64.10;33.40;;;;;;;;;;5075369;28;20082;-91
2022/11/21 05:04:06;;;;;;;64.13;32.88;;;;;;;;;;5075119;28;20041;-92
2022/11/21 05:06:32;;;;;;;120.25;41.83;;;;;;;;;;5075060;28;20040;-91
2022/11/21 05:08:58;;;;;;;109.07;41.90;;;;;;;;;;5075082;28;20021;-91
2022/11/21 05:14:12;;;;;;;106.53;40.20;;;;;;;;;;5076432;28;20102;-92
2022/11/21 05:16:38;;;;;;;186.50;48.83;;;;;;;;;;5076877;28;20059;-89
2022/11/21 05:19:04;;;;;;;72.28;37.75;;;;;;;;;;5099303;28;20071;-89
2022/11/21 05:21:30;;;;;;;79.28;39.75;;;;;;;;;;5086650;28;20023;-90
2022/11/21 05:23:56;;;;;;;72.10;33.70;;;;;;;;;;5076429;28;20046;-92
2022/11/21 05:26:23;;;;;;;97.60;38.72;;;;;;;;;;5074701;28;20484;-89
2022/11/21 05:28:49;;;;;;;80.53;36.42;;;;;;;;;;5074593;28;20024;-92
2022/11/21 05:31:15;;;;;;;110.15;41.35;;;;;;;;;;5074412;28;20028;-92
2022/11/21 05:33:41;;;;;;;67.65;34.58;;;;;;;;;;5075450;28;20051;-90
2022/11/21 05:36:07;;;;;;;71.95;35.58;;;;;;;;;;5074694;28;20066;-90
2022/11/21 05:38:33;;;;;;;81.22;37.80;;;;;;;;;;5074525;28;20107;-89
2022/11/21 05:41:01;;;;;;;113.47;40.70;;;;;;;;;;5074092;28;20055;-90
2022/11/21 05:43:45;;;;;;;84.95;38.72;;;;;;;;;;5077757;28;20028;-89
2022/11/21 05:46:15;;;;;;;98.88;37.83;;;;;;;;;;5074510;28;20020;-88
2022/11/21 05:48:41;;;;;;;95.25;38.88;;;;;;;;;;5074467;28;20550;-91
2022/11/21 05:51:08;;;;;;;155.27;46.03;;;;;;;;;;5073879;28;20054;-91
2022/11/21 05:53:35;;;;;;;110.72;43.40;;;;;;;;;;5073440;28;20078;-91
2022/11/21 05:56:02;;;;;;;90.78;38.97;;;;;;;;;;5074288;28;20457;-91
2022/11/21 05:58:29;;;;;;;100.72;40.60;;;;;;;;;;5074729;28;20393;-90
2022/11/21 06:00:58;;;;;;;85.85;38.45;;;;;;;;;;5068368;28;20116;-91
2022/11/21 06:03:31;;;;;;;64.03;33.22;;;;;;;;;;5053745;28;20083;-90
2022/11/21 06:06:04;;;;;;;90.55;37.13;;;;;;;;;;5054043;28;20033;-91
2022/11/21 06:08:37;;;;;;;67.15;33.83;;;;;;;;;;5053867;28;20098;-93
2022/11/21 06:11:03;;;;;;;83.60;36.35;;;;;;;;;;5053943;28;20017;-91
2022/11/21 06:13:30;;;;;;;64.72;32.90;;;;;;;;;;5053768;28;20044;-91
2022/11/21 06:16:07;;;;;;;83.40;38.13;;;;;;;;;;5054864;28;20029;-92
2022/11/21 06:18:37;;;;;;;117.07;44.45;;;;;;;;;;5054102;28;20040;-91
2022/11/21 17:25:34;;;;;;;49.58;28.98;;;;;;;;;;5826863;23;21171;-91
2022/11/21 17:28:00;;;;;;;57.95;34.42;;;;;;;;;;4975765;28;20046;-89
2022/11/21 17:30:26;;;;;;;48.92;30.65;;;;;;;;;;4977480;28;20026;-90
2022/11/21 17:32:53;;;;;;;47.30;28.95;;;;;;;;;;4989687;28;20054;-88
2022/11/21 17:35:19;;;;;;;52.85;29.73;;;;;;;;;;4980111;28;20034;-89
2022/11/21 17:37:46;;;;;;;70.93;42.85;;;;;;;;;;4975799;28;20472;-89
2022/11/21 17:40:12;;;;;;;67.75;37.60;;;;;;;;;;4975265;28;20027;-87
2022/11/21 17:42:39;;;;;;;62.13;35.97;;;;;;;;;;4975346;28;20035;-87
2022/11/21 17:45:06;;;;;;;58.53;33.80;;;;;;;;;;4975581;28;20475;-89
2022/11/21 17:47:33;;;;;;;47.40;28.23;;;;;;;;;;4975096;28;20066;-86
2022/11/21 17:49:59;;;;;;;49.22;28.33;;;;;;;;;;4976997;28;20463;-87
2022/11/21 17:52:25;;;;;;;53.17;31.05;;;;;;;;;;4975251;28;20048;-89
2022/11/21 17:54:51;;;;;;;63.05;35.42;;;;;;;;;;4975417;28;20030;-92
2022/11/21 17:57:17;;;;;;;72.07;39.10;;;;;;;;;;4975366;28;20031;-89
2022/11/21 17:59:44;;;;;;;65.60;36.17;;;;;;;;;;4975173;28;20127;-89
2022/11/21 18:02:10;;;;;;;58.38;33.42;;;;;;;;;;4975266;28;20023;-88
2022/11/21 18:04:37;;;;;;;46.63;26.45;;;;;;;;;;4975333;28;20027;-90
2022/11/21 18:07:05;;;;;;;66.22;33.80;;;;;;;;;;4975242;28;20034;-90
2022/11/21 18:09:31;;;;;;;59.95;33.03;;;;;;;;;;4975211;28;20037;-92
2022/11/21 18:11:57;;;;;;;47.65;27.98;;;;;;;;;;4975253;28;20062;-88
2022/11/21 18:14:23;;;;;;;50.30;28.75;;;;;;;;;;4975410;28;20102;-88
2022/11/21 18:16:50;;;;;;;39.58;24.55;;;;;;;;;;4974950;28;20029;-89
2022/11/21 18:19:16;;;;;;;52.00;30.50;;;;;;;;;;4974751;28;20026;-88
2022/11/21 18:21:42;;;;;;;41.05;23.98;;;;;;;;;;4974852;28;20031;-90
2022/11/21 18:24:08;;;;;;;42.35;25.45;;;;;;;;;;4974771;28;20121;-88
2022/11/21 18:26:38;;;;;;;46.45;26.65;;;;;;;;;;4974659;28;20126;-89
2022/11/21 18:29:06;;;;;;;42.05;25.85;;;;;;;;;;4975801;28;20034;-87
2022/11/21 18:31:32;;;;;;;73.72;33.42;;;;;;;;;;4976220;28;20026;-89
2022/11/21 18:33:59;;;;;;;123.05;57.65;;;;;;;;;;4974585;28;20034;-88
2022/11/21 18:36:26;;;;;;;137.48;53.60;;;;;;;;;;4974544;28;20027;-88
2022/11/21 18:38:53;;;;;;;107.90;48.00;;;;;;;;;;4974732;28;20050;-88
2022/11/21 18:41:20;;;;;;;107.55;45.35;;;;;;;;;;4975114;28;20039;-92
2022/11/21 18:43:51;;;;;;;75.68;37.85;;;;;;;;;;4974831;28;20023;-89
2022/11/21 18:46:17;;;;;;;219.95;54.95;;;;;;;;;;4975644;28;20035;-88
2022/11/21 18:48:43;;;;;;;220.25;60.88;;;;;;;;;;4975325;28;20031;-89
2022/11/21 18:51:14;;;;;;;289.83;67.00;;;;;;;;;;4974454;28;20130;-87
2022/11/21 18:53:40;;;;;;;310.98;73.15;;;;;;;;;;4974480;28;20054;-90
2022/11/21 18:56:08;;;;;;;254.40;66.97;;;;;;;;;;4974548;28;20038;-87
2022/11/21 18:58:35;;;;;;;202.88;58.80;;;;;;;;;;4974338;28;20145;-88
2022/11/21 19:01:02;;;;;;;148.80;49.40;;;;;;;;;;4974429;28;20027;-90
2022/11/21 19:03:28;;;;;;;177.07;55.17;;;;;;;;;;4974717;28;20093;-88
2022/11/21 19:05:54;;;;;;;154.57;55.53;;;;;;;;;;4973857;28;20023;-90
2022/11/21 19:08:21;;;;;;;158.95;55.67;;;;;;;;;;4974225;28;20046;-89
2022/11/21 19:10:47;;;;;;;130.85;52.35;;;;;;;;;;4975524;28;20027;-88
2022/11/21 19:13:13;;;;;;;72.82;36.33;;;;;;;;;;4976458;28;20653;-92
2022/11/21 19:15:41;;;;;;;145.10;53.33;;;;;;;;;;4974315;28;20030;-88
2022/11/21 19:18:09;;;;;;;93.50;42.05;;;;;;;;;;4974838;28;20038;-89
2022/11/21 19:20:40;;;;;;;119.40;44.50;;;;;;;;;;4974408;28;20142;-87
2022/11/21 19:23:39;;;;;;;220.95;49.08;;;;;;;;;;4974606;28;20118;-87
2022/11/21 19:26:16;;;;;;;141.05;43.63;;;;;;;;;;4976045;28;20521;-87
2022/11/21 19:28:43;;;;;;;75.32;34.90;;;;;;;;;;4977818;28;20062;-87
2022/11/21 19:31:10;;;;;;;95.82;40.45;;;;;;;;;;4985112;28;20030;-88
2022/11/21 19:33:36;;;;;;;97.18;40.92;;;;;;;;;;4987175;28;20030;-87
2022/11/21 19:36:04;;;;;;;64.68;35.05;;;;;;;;;;4974019;28;20035;-89
2022/11/21 19:38:31;;;;;;;62.03;34.15;;;;;;;;;;4975031;28;20034;-88
2022/11/21 19:41:14;;;;;;;67.60;36.47;;;;;;;;;;4990515;28;20034;-88
2022/11/21 19:43:41;;;;;;;132.82;55.25;;;;;;;;;;4992706;28;20037;-88
2022/11/21 19:46:07;;;;;;;118.40;52.40;;;;;;;;;;4974246;28;20027;-88
2022/11/21 19:48:33;;;;;;;106.18;48.80;;;;;;;;;;4974064;28;20384;-86
2022/11/21 19:51:00;;;;;;;66.03;35.63;;;;;;;;;;4973873;28;20034;-87
2022/11/21 19:53:27;;;;;;;93.72;40.58;;;;;;;;;;4973855;28;20031;-86
2022/11/21 19:55:54;;;;;;;58.88;31.88;;;;;;;;;;4988039;28;20038;-88
2022/11/21 19:58:20;;;;;;;87.32;38.70;;;;;;;;;;4994066;28;20121;-90
2022/11/21 20:00:46;;;;;;;103.18;43.03;;;;;;;;;;4993473;28;20045;-90
2022/11/21 20:03:12;;;;;;;75.22;36.80;;;;;;;;;;4993325;28;20065;-88
2022/11/21 20:05:39;;;;;;;90.75;41.10;;;;;;;;;;4993599;28;20026;-95
2022/11/21 20:08:22;;;;;;;71.13;35.67;;;;;;;;;;4989839;28;20034;-93
2022/11/21 20:10:56;;;;;;;64.18;33.17;;;;;;;;;;4998030;28;20537;-93
2022/11/21 20:13:28;;;;;;;263.67;52.40;;;;;;;;;;5000974;28;20040;-92
2022/11/21 20:16:12;;;;;;;462.70;62.55;;;;;;;;;;5001347;28;20088;-92
2022/11/21 20:19:00;;;;;;;183.88;45.42;;;;;;;;;;4999414;28;20040;-93
2022/11/21 20:21:27;;;;;;;405.35;56.67;;;;;;;;;;4998913;28;20035;-93
2022/11/21 20:23:56;;;;;;;351.92;57.75;;;;;;;;;;4998617;28;20095;-95
2022/11/21 20:26:37;;;;;;;;;;;;;;;;;;;;;
2022/11/21 20:29:07;;;;;;;258.08;54.08;;;;;;;;;;4996159;28;20049;-95
2022/11/21 20:32:17;;;;;;;245.48;52.42;;;;;;;;;;4977561;28;20117;-96
2022/11/21 20:34:27;;;;;;;223.82;44.25;;;;;;;;;;4988508;28;20027;-94
2022/11/21 20:37:00;;;;;;;159.52;38.40;;;;;;;;;;4978628;28;20054;-93
2022/11/21 20:39:32;;;;;;;251.30;50.13;;;;;;;;;;4979378;28;20037;-93
2022/11/21 20:42:05;;;;;;;430.67;60.13;;;;;;;;;;4991707;28;20476;-93
2022/11/21 20:47:54;;;;;;;176.35;37.55;;;;;;;;;;4993126;28;20522;-92
2022/11/21 20:50:25;;;;;;;197.45;43.85;;;;;;;;;;4979193;28;20106;-94
2022/11/21 20:52:57;;;;;;;350.83;49.42;;;;;;;;;;4979888;28;20086;-93
2022/11/21 20:55:29;;;;;;;249.73;47.42;;;;;;;;;;4977185;28;20035;-93
2022/11/21 20:58:07;;;;;;;298.52;53.20;;;;;;;;;;4977919;28;20041;-95
2022/11/21 21:00:43;;;;;;;320.45;50.80;;;;;;;;;;4965033;28;20038;-94
2022/11/21 21:03:38;;;;;;;85.40;35.00;;;;;;;;;;4984394;28;20039;-91
2022/11/21 21:06:12;;;;;;;225.07;49.72;;;;;;;;;;4987334;28;20027;-94
2022/11/21 21:08:48;;;;;;;160.68;42.22;;;;;;;;;;4978199;28;20477;-95
2022/11/21 21:11:49;;;;;;;266.35;48.25;;;;;;;;;;4985783;28;20022;-93
2022/11/21 21:14:24;;;;;;;140.85;38.13;;;;;;;;;;4997660;28;20035;-95
2022/11/21 21:16:51;;;;;;;367.52;51.05;;;;;;;;;;4995709;28;20069;-93
2022/11/21 21:19:35;;;;;;;367.30;51.60;;;;;;;;;;4995908;28;20030;-92
2022/11/21 21:22:01;;;;;;;287.80;45.92;;;;;;;;;;4997156;28;20129;-94
2022/11/21 21:24:27;;;;;;;195.15;38.03;;;;;;;;;;5006766;28;20042;-94
2022/11/21 21:27:18;;;;;;;370.33;52.97;;;;;;;;;;4989993;28;20441;-95
2022/11/21 21:32:34;;;;;;;418.00;58.75;;;;;;;;;;4970805;28;20499;-95
2022/11/21 21:35:07;;;;;;;348.40;58.03;;;;;;;;;;4977132;28;20023;-95
2022/11/21 21:37:39;;;;;;;382.48;54.30;;;;;;;;;;4978801;28;20106;-95
2022/11/21 21:46:08;;;;;;;267.40;46.23;;;;;;;;;;4982053;28;20041;-95
2022/11/21 21:48:39;;;;;;;265.13;48.13;;;;;;;;;;4980719;28;20035;-96
2022/11/21 21:51:40;;;;;;;311.15;56.33;;;;;;;;;;4980798;28;20038;-96
2022/11/21 21:54:19;;;;;;;232.18;48.17;;;;;;;;;;4946487;29;20042;-95
2022/11/21 21:56:48;;;;;;;239.35;53.83;;;;;;;;;;4945402;29;20147;-96
2022/11/21 21:59:18;;;;;;;241.88;47.15;;;;;;;;;;4970753;28;20051;-96
2022/11/21 22:01:50;;;;;;;246.77;49.38;;;;;;;;;;4964819;28;20135;-93
2022/11/21 22:04:27;;;;;;;342.58;54.50;;;;;;;;;;4960156;28;20038;-95
2022/11/21 22:06:59;;;;;;;298.73;51.97;;;;;;;;;;4981246;28;20031;-96
2022/11/21 22:09:25;;;;;;;258.90;50.55;;;;;;;;;;4965892;28;20047;-95
2022/11/21 22:12:20;;;;;;;254.20;49.28;;;;;;;;;;4981619;28;20570;-96
2022/11/21 22:14:49;;;;;;;169.93;40.80;;;;;;;;;;4965637;28;20062;-95
2022/11/21 22:17:22;;;;;;;93.68;37.10;;;;;;;;;;4963893;28;20027;-96
2022/11/21 22:20:09;;;;;;;341.75;56.80;;;;;;;;;;4957823;28;20034;-96
2022/11/21 22:22:38;;;;;;;198.23;49.80;;;;;;;;;;4973077;28;20026;-96
2022/11/21 22:25:05;;;;;;;219.60;45.38;;;;;;;;;;4947872;28;20094;-95
2022/11/21 22:27:36;;;;;;;237.13;50.17;;;;;;;;;;4945439;28;20035;-96
2022/11/21 22:30:05;;;;;;;143.38;42.40;;;;;;;;;;4960721;28;20055;-93
2022/11/21 22:32:31;;;;;;;158.00;41.78;;;;;;;;;;4958779;28;20022;-96
2022/11/21 22:35:00;;;;;;;226.80;47.45;;;;;;;;;;4958524;28;20061;-96
2022/11/21 22:37:26;;;;;;;123.30;32.97;;;;;;;;;;4963576;28;20015;-93
2022/11/21 22:39:52;;;;;;;195.02;42.75;;;;;;;;;;4979007;28;20031;-96
2022/11/21 22:42:18;;;;;;;216.25;42.38;;;;;;;;;;4979323;28;20038;-95
2022/11/21 22:44:45;;;;;;;387.27;59.05;;;;;;;;;;4975694;28;20038;-96
2022/11/21 22:47:11;;;;;;;346.85;52.80;;;;;;;;;;4975661;28;20038;-94
2022/11/21 22:49:43;;;;;;;253.07;49.80;;;;;;;;;;4976001;28;20086;-95
2022/11/21 22:52:10;;;;;;;295.77;51.80;;;;;;;;;;4977448;28;20074;-96
2022/11/21 22:54:36;;;;;;;329.05;59.90;;;;;;;;;;4984773;28;20045;-95
2022/11/21 22:57:02;;;;;;;174.45;48.28;;;;;;;;;;4995976;28;20033;-95
2022/11/21 22:59:28;;;;;;;179.10;44.30;;;;;;;;;;4980806;28;20038;-96
2022/11/21 23:01:57;;;;;;;213.60;48.05;;;;;;;;;;4996459;28;20026;-95
2022/11/21 23:04:23;;;;;;;91.22;37.92;;;;;;;;;;4995739;28;20483;-96
2022/11/21 23:06:53;;;;;;;170.70;41.75;;;;;;;;;;4979354;28;20037;-95
2022/11/21 23:09:22;;;;;;;133.77;38.40;;;;;;;;;;4997212;28;20038;-95
2022/11/21 23:12:00;;;;;;;178.20;44.03;;;;;;;;;;4996310;28;20055;-96
2022/11/21 23:14:26;;;;;;;231.95;46.67;;;;;;;;;;4995064;28;20213;-94
2022/11/21 23:19:28;;;;;;;231.15;44.13;;;;;;;;;;4984975;23;20055;-94
2022/11/21 23:21:57;;;;;;;244.73;48.50;;;;;;;;;;4977149;28;20494;-95
2022/11/21 23:24:26;;;;;;;218.10;45.00;;;;;;;;;;4975733;28;20030;-91
2022/11/21 23:26:52;;;;;;;250.77;46.97;;;;;;;;;;4976325;28;20035;-96
2022/11/21 23:29:21;;;;;;;197.70;46.03;;;;;;;;;;4975894;28;20081;-94
2022/11/21 23:31:47;;;;;;;231.85;48.20;;;;;;;;;;4976364;28;20031;-95
2022/11/21 23:34:14;;;;;;;252.93;49.85;;;;;;;;;;4975421;28;20031;-95
2022/11/21 23:36:46;;;;;;;103.05;37.03;;;;;;;;;;4976119;28;20027;-96
2022/11/21 23:39:15;;;;;;;137.50;41.65;;;;;;;;;;4976001;28;20039;-94
2022/11/21 23:41:41;;;;;;;214.75;43.88;;;;;;;;;;4974903;28;20023;-95
2022/11/21 23:44:13;;;;;;;80.55;34.88;;;;;;;;;;4974373;28;20058;-95
2022/11/21 23:46:40;;;;;;;182.25;45.75;;;;;;;;;;4975886;28;20427;-93
2022/11/21 23:49:06;;;;;;;223.52;48.47;;;;;;;;;;4978933;28;20038;-94
2022/11/21 23:51:32;;;;;;;155.05;38.70;;;;;;;;;;4978586;28;20435;-94
2022/11/21 23:53:58;;;;;;;181.90;46.22;;;;;;;;;;4981269;28;20027;-94
2022/11/21 23:56:24;;;;;;;135.25;40.97;;;;;;;;;;4980719;28;20027;-95
2022/11/21 23:58:50;;;;;;;145.02;40.83;;;;;;;;;;4980038;28;20026;-95
